createdAt,value
2022-12-15T00:02:02.710Z,35.37
2022-12-15T00:05:08.334Z,34.72
2022-12-15T00:08:12.110Z,35.72
2022-12-15T00:11:16.406Z,33.58
2022-12-15T00:14:20.255Z,33.78
2022-12-15T00:17:23.988Z,36.43
2022-12-15T00:20:29.362Z,35.28
2022-12-15T00:23:33.137Z,32.53
2022-12-15T00:26:37.064Z,31.15
2022-12-15T00:29:40.793Z,37.22
2022-12-15T00:32:44.443Z,37.10
2022-12-15T00:35:49.721Z,32.88
2022-12-15T00:38:41.824Z,34.97
2022-12-15T00:41:27.380Z,31.40
2022-12-15T00:44:17.274Z,34.25
2022-12-15T00:47:05.842Z,35.17
2022-12-15T00:50:10.316Z,33.40
2022-12-15T00:53:15.669Z,34.13
2022-12-15T00:56:19.217Z,35.05
2022-12-15T00:59:23.087Z,33.33
2022-12-15T01:02:26.804Z,32.43
2022-12-15T01:05:31.376Z,39.53
2022-12-15T01:08:36.541Z,30.38
2022-12-15T01:11:40.256Z,34.00
2022-12-15T01:14:45.200Z,34.13
2022-12-15T01:17:48.889Z,34.93
2022-12-15T01:20:34.708Z,32.30
2022-12-15T01:23:21.419Z,35.30
2022-12-15T01:26:07.576Z,34.55
2022-12-15T01:28:52.966Z,36.83
2022-12-15T01:31:38.293Z,30.13
2022-12-15T01:34:23.720Z,35.03
2022-12-15T01:37:08.883Z,32.75
2022-12-15T01:40:14.115Z,31.38
2022-12-15T01:43:00.523Z,35.60
2022-12-15T01:46:00.349Z,33.30
2022-12-15T01:48:49.203Z,34.88
2022-12-15T01:51:39.679Z,36.63
2022-12-15T01:54:30.018Z,34.95
2022-12-15T01:57:22.581Z,42.25
2022-12-15T02:00:09.765Z,34.47
2022-12-15T02:02:56.598Z,37.28
2022-12-15T02:05:42.786Z,37.00
2022-12-15T02:08:29.242Z,34.75
2022-12-15T02:11:39.272Z,35.38
2022-12-15T02:14:40.240Z,34.87
2022-12-15T02:17:36.041Z,34.50
2022-12-15T02:20:37.511Z,35.50
2022-12-15T02:23:56.202Z,33.17
2022-12-15T02:27:16.990Z,34.42
2022-12-15T02:30:18.674Z,35.17
2022-12-15T02:33:11.607Z,36.25
2022-12-15T02:36:00.226Z,35.45
2022-12-15T02:38:45.680Z,34.47
2022-12-15T02:41:37.267Z,34.08
2022-12-15T02:44:26.558Z,34.47
2022-12-15T02:47:28.219Z,37.67
2022-12-15T02:50:31.044Z,36.13
2022-12-15T02:53:33.332Z,35.85
2022-12-15T02:56:25.823Z,39.17
2022-12-15T02:59:19.573Z,37.90
2022-12-15T03:02:06.611Z,35.40
2022-12-15T03:04:53.982Z,36.67
2022-12-15T03:07:39.548Z,32.05
2022-12-15T03:10:25.814Z,35.88
2022-12-15T03:13:11.194Z,35.63
2022-12-15T03:15:58.275Z,34.28
2022-12-15T03:18:43.869Z,38.08
2022-12-15T03:21:30.531Z,36.25
2022-12-15T03:24:15.791Z,37.03
2022-12-15T03:27:01.486Z,32.70
2022-12-15T03:29:47.186Z,34.85
2022-12-15T03:32:32.426Z,35.30
2022-12-15T03:35:17.870Z,37.17
2022-12-15T03:38:04.515Z,36.42
2022-12-15T03:40:49.955Z,34.10
2022-12-15T03:43:35.273Z,37.90
2022-12-15T03:46:20.618Z,33.90
2022-12-15T03:49:07.019Z,32.47
2022-12-15T03:51:52.357Z,33.33
2022-12-15T03:54:38.860Z,36.43
2022-12-15T03:57:24.312Z,38.67
2022-12-15T04:00:15.122Z,31.42
2022-12-15T04:03:00.437Z,34.40
2022-12-15T04:05:46.150Z,33.60
2022-12-15T04:08:31.395Z,36.90
2022-12-15T04:11:18.135Z,36.85
2022-12-15T04:14:03.428Z,34.85
2022-12-15T04:16:48.712Z,35.45
2022-12-15T04:19:52.398Z,36.15
2022-12-15T04:22:38.781Z,33.80
2022-12-15T04:25:44.008Z,35.60
2022-12-15T04:28:49.510Z,37.95
2022-12-15T04:31:53.146Z,34.50
2022-12-15T04:34:56.985Z,36.90
2022-12-15T04:38:00.912Z,37.80
2022-12-15T04:41:04.595Z,37.60
2022-12-15T04:44:09.606Z,38.03
2022-12-15T04:47:14.208Z,37.45
2022-12-15T04:50:17.849Z,36.83
2022-12-15T04:53:29.794Z,36.50
2022-12-15T04:56:35.115Z,35.42
2022-12-15T04:59:40.288Z,38.25
2022-12-15T05:02:44.185Z,37.80
2022-12-15T05:05:47.874Z,41.58
2022-12-15T05:08:51.478Z,38.70
2022-12-15T05:11:56.197Z,40.45
2022-12-15T05:15:01.721Z,39.40
2022-12-15T05:18:05.509Z,36.70
2022-12-15T05:21:09.826Z,37.50
2022-12-15T05:24:13.476Z,40.53
2022-12-15T05:27:17.409Z,43.13
2022-12-15T05:30:22.761Z,42.92
2022-12-15T05:33:08.301Z,40.70
2022-12-15T05:35:56.883Z,51.20
2022-12-15T05:38:42.157Z,50.53
2022-12-15T05:41:27.575Z,52.60
2022-12-15T05:44:13.143Z,52.55
2022-12-15T05:47:00.173Z,57.25
2022-12-15T05:49:45.439Z,57.17
2022-12-15T05:52:30.619Z,55.47
2022-12-15T05:55:16.237Z,55.40
2022-12-15T05:58:01.783Z,56.65
2022-12-15T06:00:47.140Z,53.53
2022-12-15T06:03:34.411Z,57.63
2022-12-15T06:06:20.675Z,59.77
2022-12-15T06:09:06.586Z,65.85
2022-12-15T06:11:52.415Z,60.08
2022-12-15T06:14:38.181Z,60.80
2022-12-15T06:17:23.713Z,58.83
2022-12-15T06:20:11.514Z,57.23
2022-12-15T06:22:57.584Z,57.88
2022-12-15T06:25:43.371Z,55.83
2022-12-15T06:28:29.533Z,55.60
2022-12-15T06:31:17.777Z,54.50
2022-12-15T06:34:05.195Z,59.03
2022-12-15T06:36:51.951Z,60.65
2022-12-15T06:39:37.614Z,59.95
2022-12-15T06:42:22.981Z,61.92
2022-12-15T06:45:09.349Z,57.35
2022-12-15T06:48:01.018Z,63.23
2022-12-15T06:50:47.263Z,63.10
2022-12-15T06:53:38.658Z,61.33
2022-12-15T06:56:32.422Z,62.05
2022-12-15T06:59:19.037Z,62.13
2022-12-15T07:02:04.332Z,64.40
2022-12-15T07:04:50.041Z,68.10
2022-12-15T07:07:35.249Z,68.25
2022-12-15T07:10:22.943Z,65.68
2022-12-15T07:13:09.893Z,63.80
2022-12-15T07:15:59.303Z,68.60
2022-12-15T07:18:44.695Z,64.30
2022-12-15T07:21:30.891Z,67.43
2022-12-15T07:24:16.215Z,62.92
2022-12-15T07:27:02.852Z,63.28
2022-12-15T07:29:48.482Z,64.27
2022-12-15T07:32:34.169Z,58.97
2022-12-15T07:35:19.813Z,61.53
2022-12-15T07:38:07.160Z,55.65
2022-12-15T07:40:52.332Z,58.95
2022-12-15T07:43:39.226Z,59.63
2022-12-15T07:46:26.101Z,56.72
2022-12-15T07:49:11.541Z,55.17
2022-12-15T07:51:58.533Z,57.15
2022-12-15T07:54:45.350Z,56.72
2022-12-15T07:57:32.867Z,58.07
2022-12-15T08:00:20.056Z,55.38
2022-12-15T08:03:05.425Z,58.95
2022-12-15T08:05:51.259Z,56.17
2022-12-15T08:08:37.115Z,60.22
2022-12-15T08:11:25.020Z,57.57
2022-12-15T08:14:17.109Z,53.17
2022-12-15T08:17:04.753Z,55.60
2022-12-15T08:19:50.583Z,52.65
2022-12-15T08:22:36.713Z,55.40
2022-12-15T08:25:21.873Z,52.80
2022-12-15T08:28:07.165Z,56.42
2022-12-15T08:30:52.420Z,58.20
2022-12-15T08:33:39.840Z,55.53
2022-12-15T08:36:25.318Z,53.40
2022-12-15T08:39:10.551Z,55.50
2022-12-15T08:41:56.356Z,56.47
2022-12-15T08:44:41.973Z,54.67
2022-12-15T08:47:27.282Z,56.25
2022-12-15T08:50:13.804Z,60.03
2022-12-15T08:53:29.089Z,62.10
2022-12-15T08:56:06.214Z,62.13
2022-12-15T08:58:56.588Z,60.70
2022-12-15T09:01:43.504Z,62.65
2022-12-15T09:04:28.958Z,62.95
2022-12-15T09:07:16.243Z,63.63
2022-12-15T09:10:01.575Z,63.88
2022-12-15T09:12:47.031Z,61.25
2022-12-15T09:16:07.134Z,62.95
2022-12-15T09:18:38.028Z,58.80
2022-12-15T09:21:26.336Z,56.83
2022-12-15T09:24:22.121Z,56.33
2022-12-15T09:27:10.236Z,55.00
2022-12-15T09:29:55.567Z,55.05
2022-12-15T09:32:40.879Z,56.92
2022-12-15T09:35:26.846Z,52.33
2022-12-15T09:38:12.520Z,53.97
2022-12-15T09:41:07.007Z,53.88
2022-12-15T09:43:56.897Z,56.90
2022-12-15T09:46:53.608Z,54.58
2022-12-15T09:49:53.305Z,54.40
2022-12-15T09:52:46.673Z,55.28
2022-12-15T09:55:33.169Z,55.80
2022-12-15T09:58:31.797Z,55.22
2022-12-15T10:01:26.530Z,60.75
2022-12-15T10:04:18.745Z,56.97
2022-12-15T10:07:11.995Z,64.45
2022-12-15T10:09:57.491Z,60.88
2022-12-15T10:12:55.305Z,55.20
2022-12-15T10:15:53.258Z,55.85
2022-12-15T10:18:45.719Z,60.13
2022-12-15T10:21:36.624Z,57.28
2022-12-15T10:27:54.644Z,54.33
2022-12-15T10:30:45.842Z,60.60
2022-12-15T10:33:35.999Z,63.40
2022-12-15T10:36:21.986Z,56.47
2022-12-15T10:39:07.436Z,60.20
2022-12-15T10:42:13.669Z,58.08
2022-12-15T10:44:59.916Z,60.92
2022-12-15T10:47:59.132Z,58.03
2022-12-15T10:50:47.092Z,59.80
2022-12-15T10:53:41.588Z,60.05
2022-12-15T10:56:33.148Z,56.20
2022-12-15T10:59:25.423Z,57.33
2022-12-15T11:02:34.526Z,60.17
2022-12-15T11:05:20.672Z,58.70
2022-12-15T11:08:17.221Z,55.75
2022-12-15T11:11:25.984Z,56.55
2022-12-15T11:14:14.768Z,56.28
2022-12-15T11:17:00.138Z,57.23
2022-12-15T11:19:56.751Z,56.30
2022-12-15T11:22:52.110Z,64.63
2022-12-15T11:25:42.949Z,56.50
2022-12-15T11:28:38.701Z,58.35
2022-12-15T11:31:31.674Z,59.83
2022-12-15T11:34:20.524Z,59.80
2022-12-15T11:37:34.256Z,60.53
2022-12-15T11:40:33.117Z,66.57
2022-12-15T11:43:51.108Z,63.42
2022-12-15T11:46:43.175Z,70.00
2022-12-15T11:49:44.423Z,62.58
2022-12-15T11:52:44.955Z,70.40
2022-12-15T11:55:41.421Z,65.38
2022-12-15T11:58:50.666Z,65.95
2022-12-15T12:01:58.852Z,68.13
2022-12-15T12:05:04.618Z,71.70
2022-12-15T12:07:53.756Z,66.78
2022-12-15T12:10:48.976Z,71.15
2022-12-15T12:13:43.130Z,69.35
2022-12-15T12:16:38.460Z,71.37
2022-12-15T12:19:30.847Z,67.03
2022-12-15T12:22:24.164Z,68.65
2022-12-15T12:25:15.407Z,64.82
2022-12-15T12:28:04.129Z,65.15
2022-12-15T12:30:50.601Z,65.30
2022-12-15T12:33:40.909Z,70.28
2022-12-15T12:36:27.738Z,71.50
2022-12-15T12:39:18.629Z,67.25
2022-12-15T12:42:10.271Z,65.45
2022-12-15T12:44:56.104Z,66.80
2022-12-15T12:47:47.509Z,68.13
2022-12-15T12:50:34.202Z,68.32
2022-12-15T12:53:32.567Z,68.03
2022-12-15T12:56:37.891Z,65.07
2022-12-15T12:59:38.603Z,65.53
2022-12-15T13:02:46.853Z,65.57
2022-12-15T13:05:34.179Z,69.13
2022-12-15T13:08:45.272Z,66.75
2022-12-15T13:12:03.190Z,70.72
2022-12-15T13:14:54.718Z,63.33
2022-12-15T13:17:44.046Z,67.63
2022-12-15T13:20:32.757Z,67.47
2022-12-15T13:23:40.281Z,66.57
2022-12-15T13:26:31.468Z,69.10
2022-12-15T13:29:21.721Z,62.37
2022-12-15T13:32:28.903Z,73.95
2022-12-15T13:35:23.571Z,69.65
2022-12-15T13:38:17.496Z,69.82
2022-12-15T13:41:22.604Z,62.95
2022-12-15T13:44:15.406Z,67.43
2022-12-15T13:47:09.553Z,65.30
2022-12-15T13:50:01.806Z,65.88
2022-12-15T13:56:20.041Z,69.10
2022-12-15T13:59:12.578Z,63.77
2022-12-15T14:01:58.130Z,70.20
2022-12-15T14:04:44.353Z,67.07
2022-12-15T14:07:29.660Z,70.97
2022-12-15T14:10:21.081Z,70.68
2022-12-15T14:13:16.123Z,70.90
2022-12-15T14:16:05.966Z,72.97
2022-12-15T14:19:04.647Z,78.82
2022-12-15T14:21:52.393Z,74.70
2022-12-15T14:24:49.486Z,73.93
2022-12-15T14:27:36.321Z,74.77
2022-12-15T14:30:26.654Z,77.32
2022-12-15T14:33:16.042Z,74.63
2022-12-15T14:36:04.708Z,77.03
2022-12-15T14:38:52.751Z,77.53
2022-12-15T14:41:45.259Z,78.70
2022-12-15T14:44:39.068Z,76.65
2022-12-15T14:47:30.990Z,75.00
2022-12-15T14:53:31.110Z,72.93
2022-12-15T14:59:34.944Z,76.82
2022-12-15T15:02:23.282Z,73.07
2022-12-15T15:03:10.677Z,58.70
2022-12-15T15:03:16.102Z,66.67
2022-12-15T15:05:27.383Z,67.75
2022-12-15T15:08:15.561Z,81.03
2022-12-15T15:11:04.786Z,71.10
2022-12-15T15:13:56.187Z,65.30
2022-12-15T15:16:43.012Z,69.57
2022-12-15T15:19:28.941Z,70.90
2022-12-15T15:22:31.353Z,70.43
2022-12-15T15:25:27.590Z,72.27
2022-12-15T15:28:20.525Z,70.03
2022-12-15T15:31:32.655Z,69.68
2022-12-15T15:34:21.908Z,64.03
2022-12-15T15:37:18.349Z,73.20
2022-12-15T15:40:10.848Z,66.37
2022-12-15T15:42:56.205Z,71.20
2022-12-15T15:45:41.957Z,69.95
2022-12-15T15:48:30.973Z,69.43
2022-12-15T15:51:16.538Z,73.95
2022-12-15T15:54:05.688Z,81.50
2022-12-15T15:56:52.749Z,78.32
2022-12-15T15:59:42.366Z,75.63
2022-12-15T16:02:28.087Z,73.68
2022-12-15T16:05:14.036Z,68.55
2022-12-15T16:08:00.791Z,82.73
2022-12-15T16:10:47.999Z,79.22
2022-12-15T16:13:34.730Z,76.45
2022-12-15T16:16:24.905Z,83.95
2022-12-15T16:19:12.208Z,89.47
2022-12-15T16:21:57.621Z,88.47
2022-12-15T16:24:43.188Z,85.85
2022-12-15T16:27:28.755Z,85.97
2022-12-15T16:30:21.353Z,84.97
2022-12-15T16:33:06.878Z,88.95
2022-12-15T16:35:53.561Z,87.00
2022-12-15T16:38:39.235Z,84.05
2022-12-15T16:41:27.719Z,85.97
2022-12-15T16:44:15.603Z,88.72
2022-12-15T16:47:02.528Z,82.20
2022-12-15T16:49:48.220Z,84.40
2022-12-15T16:52:33.476Z,84.60
2022-12-15T16:55:21.729Z,85.45
2022-12-15T16:58:10.690Z,84.10
2022-12-15T17:00:56.736Z,92.18
2022-12-15T17:03:43.673Z,96.17
2022-12-15T17:06:30.330Z,96.90
2022-12-15T17:09:21.211Z,91.72
2022-12-15T17:12:09.484Z,86.50
2022-12-15T17:14:55.229Z,91.13
2022-12-15T17:17:41.401Z,95.03
2022-12-15T17:20:30.904Z,94.80
2022-12-15T17:23:19.306Z,93.82
2022-12-15T17:26:28.632Z,94.32
2022-12-15T17:29:16.063Z,100.38
2022-12-15T17:32:05.225Z,94.90
2022-12-15T17:34:50.778Z,93.15
2022-12-15T17:37:40.899Z,95.78
2022-12-15T17:40:26.594Z,87.22
2022-12-15T17:43:13.946Z,89.60
2022-12-15T17:45:59.545Z,82.60
2022-12-15T17:48:46.394Z,80.55
2022-12-15T17:51:32.304Z,83.80
2022-12-15T17:54:19.995Z,82.32
2022-12-15T17:57:05.829Z,85.22
2022-12-15T17:59:51.427Z,82.67
2022-12-15T18:02:37.254Z,76.63
2022-12-15T18:05:24.879Z,76.03
2022-12-15T18:08:15.787Z,82.90
2022-12-15T18:11:03.411Z,77.72
2022-12-15T18:13:48.909Z,76.90
2022-12-15T18:16:34.128Z,73.78
2022-12-15T18:19:21.094Z,76.05
2022-12-15T18:22:12.129Z,78.97
2022-12-15T18:24:59.288Z,75.72
2022-12-15T18:27:47.332Z,80.33
2022-12-15T18:30:32.809Z,84.35
2022-12-15T18:33:19.148Z,80.28
2022-12-15T18:36:06.077Z,83.78
2022-12-15T18:38:53.139Z,73.78
2022-12-15T18:41:41.563Z,76.87
2022-12-15T18:44:31.845Z,72.47
2022-12-15T18:47:18.650Z,74.93
2022-12-15T18:50:04.672Z,74.55
2022-12-15T18:52:56.451Z,71.82
2022-12-15T18:55:42.624Z,75.63
2022-12-15T18:58:30.766Z,73.78
2022-12-15T19:01:17.937Z,75.95
2022-12-15T19:04:04.380Z,71.15
2022-12-15T19:06:50.585Z,72.70
2022-12-15T19:09:38.229Z,71.20
2022-12-15T19:12:27.480Z,73.85
2022-12-15T19:15:16.813Z,69.18
2022-12-15T19:18:22.051Z,70.05
2022-12-15T19:21:35.276Z,85.72
2022-12-15T19:24:45.170Z,73.60
2022-12-15T19:27:30.805Z,72.18
2022-12-15T19:30:19.780Z,80.85
2022-12-15T19:33:07.168Z,75.30
2022-12-15T19:35:55.783Z,79.20
2022-12-15T19:38:42.539Z,83.43
2022-12-15T19:41:28.103Z,83.53
2022-12-15T19:44:15.613Z,83.90
2022-12-15T19:47:01.721Z,79.15
2022-12-15T19:49:49.277Z,76.65
2022-12-15T19:52:38.399Z,80.27
2022-12-15T19:55:28.575Z,86.25
2022-12-15T19:58:27.710Z,74.78
2022-12-15T20:01:16.910Z,82.47
2022-12-15T20:04:02.500Z,85.07
2022-12-15T20:06:51.397Z,87.00
2022-12-15T20:09:37.035Z,74.75
2022-12-15T20:12:23.048Z,83.18
2022-12-15T20:15:15.762Z,86.35
2022-12-15T20:18:02.761Z,85.63
2022-12-15T20:20:49.870Z,81.37
2022-12-15T20:23:43.773Z,87.47
2022-12-15T20:26:30.979Z,79.00
2022-12-15T20:29:23.345Z,78.00
2022-12-15T20:32:15.253Z,85.30
2022-12-15T20:35:01.672Z,80.97
2022-12-15T20:37:48.461Z,74.13
2022-12-15T20:40:35.668Z,82.10
2022-12-15T20:43:22.365Z,77.63
2022-12-15T20:46:14.726Z,71.28
2022-12-15T20:49:00.908Z,72.83
2022-12-15T20:51:49.425Z,76.13
2022-12-15T20:54:35.972Z,82.72
2022-12-15T20:57:25.032Z,75.05
2022-12-15T21:00:13.457Z,74.60
2022-12-15T21:02:59.883Z,72.33
2022-12-15T21:05:46.061Z,73.45
2022-12-15T21:08:32.245Z,77.13
2022-12-15T21:11:19.856Z,76.15
2022-12-15T21:14:16.384Z,75.50
2022-12-15T21:17:01.915Z,75.93
2022-12-15T21:19:48.911Z,73.35
2022-12-15T21:22:34.468Z,70.35
2022-12-15T21:25:26.316Z,75.97
2022-12-15T21:28:13.515Z,73.72
2022-12-15T21:31:00.362Z,73.03
2022-12-15T21:33:47.196Z,66.20
2022-12-15T21:36:32.976Z,77.82
2022-12-15T21:39:23.503Z,65.97
2022-12-15T21:42:15.991Z,66.90
2022-12-15T21:45:01.337Z,68.30
2022-12-15T21:48:07.671Z,67.10
2022-12-15T21:50:53.631Z,67.28
2022-12-15T21:53:40.047Z,66.07
2022-12-15T21:56:26.058Z,60.70
2022-12-15T21:59:14.220Z,60.17
2022-12-15T22:02:00.490Z,56.15
2022-12-15T22:04:48.883Z,62.28
2022-12-15T22:07:34.625Z,61.97
2022-12-15T22:10:20.096Z,62.15
2022-12-15T22:13:06.510Z,59.50
2022-12-15T22:15:52.031Z,56.75
2022-12-15T22:18:37.752Z,53.63
2022-12-15T22:21:25.323Z,47.40
2022-12-15T22:24:10.859Z,54.25
2022-12-15T22:26:56.630Z,48.53
2022-12-15T22:29:41.994Z,47.80
2022-12-15T22:32:27.358Z,51.75
2022-12-15T22:35:17.123Z,49.58
2022-12-15T22:38:03.734Z,49.10
2022-12-15T22:40:51.416Z,47.87
2022-12-15T22:43:39.683Z,47.40
2022-12-15T22:46:25.437Z,49.20
2022-12-15T22:49:14.953Z,43.03
2022-12-15T22:52:00.598Z,49.85
2022-12-15T22:54:48.058Z,47.40
2022-12-15T22:57:33.330Z,48.17
2022-12-15T23:00:18.796Z,45.63
2022-12-15T23:03:04.849Z,46.60
2022-12-15T23:05:50.310Z,39.40
2022-12-15T23:08:36.968Z,41.20
2022-12-15T23:11:39.185Z,40.92
2022-12-15T23:14:44.367Z,39.10
2022-12-15T23:17:29.955Z,43.75
2022-12-15T23:20:15.339Z,35.35
2022-12-15T23:23:01.023Z,35.30
2022-12-15T23:25:46.921Z,38.72
2022-12-15T23:28:34.515Z,35.38
2022-12-15T23:31:20.556Z,37.03
2022-12-15T23:34:06.317Z,36.25
2022-12-15T23:36:51.617Z,35.00
2022-12-15T23:39:36.938Z,34.75
2022-12-15T23:42:22.218Z,34.15
2022-12-15T23:45:10.302Z,37.55
2022-12-15T23:47:55.678Z,32.83
2022-12-15T23:50:40.933Z,33.73
2022-12-15T23:53:26.158Z,29.02
2022-12-15T23:56:13.392Z,34.05
2022-12-15T23:58:59.406Z,29.45
